Sunday, September 21, 2014
02:09 UTC
  |  Log In   |  Register Free
Airport Search:

Alpena County Regional Airport
(KAPN)

FAA data valid effective September 18, 2014 - November 13, 2014 (unless otherwise noted).

 
 
 
 
 
 
 
 
 
 
 
 
 
 

Current Aviation Weather for Alpena County Regional Airport (KAPN)

The most recent METAR observation for KAPN was updated at: 0109
METAR Summary (Translated METAR)
KAPN
210054Z AUTO 24007KT 9SM BKN100 18/17 A2965 RMK AO2 RAE04 SLP040 P0000 T01830172 $
KPZQ
210054Z AUTO 27003KT 10SM -RA SCT014 BKN065 OVC090 16/16 A2966 RMK AO2 T01600156
(22.4 nm NW from KAPN)
KOSC
210053Z AUTO 21010KT 7SM SCT095 BKN110 18/17 A2965 RMK AO2 T01850178
(38.3 nm SE from KAPN)
TAF Summary (Translated TAF)
KAPN
201854Z 2019/2118 21009KT P6SM BKN120 WS015/24036KT FM202000 22013G25KT P6SM -SHRA SCT040 BKN120 TEMPO 2020/2022 TSRA BKN030CB FM210100 28006KT P6SM -SHRA SCT030 OVC080 FM210500 32006KT P6SM BKN019 OVC120 FM211400 35009G18KT P6SM OVC022
  Airport Weather Conditions for KAPN

 Current Weather at APN
66° F
Light Rain
Southwest winds at 6.9 mph
APN NOAA Radar

Pressure: 29.63 in
Humidity: 93%
Wind: Southwest at 6.9 MPH (6 KT)
Dew Point: 64.0°F
Visibility: 10.00 mi


Airport Weather Forecast for KAPN

Translated METAR and TAF for KAPN
Translated METAR for KAPN (0204 UTC 21 September 2014)
found at http://aviationweather.gov/adds/metars/
 
METAR text: KAPN 210154Z AUTO VRB04KT 10SM SCT015 BKN020 OVC027 18/17 A2966 RMK AO2 VIS 1 1/2 RY 19 RAB38E48 SLP045 P0000 T01830172 $
Conditions at: KAPN (ALPENA , MI, US) observed 0154 UTC 21 September 2014
Temperature: 18.3°C (65°F)
Dewpoint: 17.2°C (63°F) [RH = 93%]
Pressure (altimeter): 29.66 inches Hg (1004.5 mb)
[Sea-level pressure: 1004.5 mb]
Winds: variable direction winds at 5 MPH (4 knots; 2.1 m/s)
Visibility: 10 or more miles (16+ km)
Ceiling: 2000 feet AGL
Clouds: scattered clouds at 1500 feet AGL
broken clouds at 2000 feet AGL
overcast cloud deck at 2700 feet AGL
Weather:
SOME DATA ABOVE MAY BE INACCURATE!!!
"$" is an indication the sensor requires maintenance
Translated TAF for KAPN
Forecast for: KAPN (ALPENA , MI, US)
TAF Text: KAPN 210123Z 2101/2124 24006KT P6SM VCSH SCT025 OVC050
Forecast period: 0100 to 0400 UTC 21 September 2014
Forecast type: FROM: standard forecast or significant change
Winds: from the WSW (240 degrees) at 7 MPH (6 knots; 3.1 m/s)
Visibility: 6 or more miles (10+ km)
Ceiling: 5000 feet AGL
Clouds: scattered clouds at 2500 feet AGL
overcast cloud deck at 5000 feet AGL
Weather: VCSH  (showers in vicinity)
TAF Text: TEMPO 2101/2103 4SM TSRA BR BKN025CB
Forecast period: 0100 to 0300 UTC 21 September 2014
Forecast type: TEMPORARY: The following changes expected for less than half the time period
Visibility: 4 miles (6 km)
Ceiling: 2500 feet AGL
Clouds: broken clouds at 2500 feet AGL
Weather: TSRA BR  (rain associated with thunderstorm(s), mist)
TAF Text: FM210400 VRB03KT P6SM BKN015 OVC030
Forecast period: 0400 to 1400 UTC 21 September 2014
Forecast type: FROM: standard forecast or significant change
Winds: variable direction winds at 3 MPH (3 knots; 1.6 m/s)
Visibility: 6 or more miles (10+ km)
Ceiling: 1500 feet AGL
Clouds: broken clouds at 1500 feet AGL
overcast cloud deck at 3000 feet AGL
Weather: no significant weather forecast for this period
TAF Text: FM211400 35011G20KT 6SM -SHRA OVC025
Forecast period: 1400 UTC 21 September 2014 to 0000 UTC 22 September 2014
Forecast type: FROM: standard forecast or significant change
Winds: from the N (350 degrees) at 13 MPH (11 knots; 5.7 m/s)
gusting to 23 MPH (20 knots; 10.4 m/s)
Visibility: 6 miles (10 km)
Ceiling: 2500 feet AGL
Clouds: overcast cloud deck at 2500 feet AGL
Weather: -SHRA  (light rain showers)

Find All Airport Services Find A Hotel Find A Rental Car Find A Golf Course Find A Restaurant $100 Hamburger



FBO's on the Field
FBO Company Facility Photos Services Transportation Aviation Fuel Prices: Prices include tax
Catering Weather Repair Courtesy Rental Type 100LL JetA JetA+ MOGAS 8087
 
Aviation Express Inc.

This FBO has not yet been rated
FS:Shell
Last Updated: Sep-05
Login to update fuel prices
SS:
Contact Aviation Express Inc.More FBO Information
 
Aviation North

This FBO has not yet been rated
FS:Avfuel
Last Updated: Sep-04
Login to update fuel prices
SS:
Contact Aviation NorthMore FBO Information
 
Add another FBO Facility Photos Catering Weather Repair Courtesy Rental Type 100LL JetA JetA+ MOGAS 8087
Services Transportation Aviation Fuel Prices: Prices include tax


model-print
model-print
model-print
model-print